Terminal Aerodrome Forecast
Issued by NWS

Home | Current Version | Previous Version | Text Only | Print | Product List | Glossary On
Versions: 1 2 3 4 5 6 7 8 9 10 11 12 13 14 15 16 17 18 19 20 21 22 23
000
FTUS44 KLZK 022300
TAFHRO
TAF
KHRO 022334Z 0300/0324 12004KT P6SM SKC
     FM030300 13004KT P6SM BKN060
      TEMPO 0310/0314 4SM BR OVC012
     FM031400 15006KT P6SM BKN020
     FM031900 15006KT P6SM BKN035=

USA.gov is the U.S. government's official web portal to all federal, state and local government web resources and services.